createdAt,value
2023-02-11T00:01:49.541Z,37.39
2023-02-11T00:04:15.850Z,37.50
2023-02-11T00:06:42.142Z,37.74
2023-02-11T00:09:08.415Z,37.50
2023-02-11T00:11:34.670Z,38.26
2023-02-11T00:14:00.954Z,37.17
2023-02-11T00:16:27.310Z,37.27
2023-02-11T00:18:53.639Z,37.34
2023-02-11T00:21:19.986Z,36.93
2023-02-11T00:23:46.256Z,37.44
2023-02-11T00:26:12.546Z,36.81
2023-02-11T00:28:38.809Z,37.26
2023-02-11T00:31:05.276Z,37.63
2023-02-11T00:33:31.585Z,37.77
2023-02-11T00:35:57.839Z,37.62
2023-02-11T00:38:24.092Z,37.59
2023-02-11T00:40:50.364Z,37.54
2023-02-11T00:43:16.649Z,37.78
2023-02-11T00:45:42.926Z,36.94
2023-02-11T00:48:09.201Z,36.63
2023-02-11T00:50:35.497Z,36.86
2023-02-11T00:53:01.760Z,37.44
2023-02-11T00:55:28.037Z,37.49
2023-02-11T00:57:54.317Z,37.46
2023-02-11T01:00:20.589Z,36.77
2023-02-11T01:02:46.877Z,37.43
2023-02-11T01:05:13.274Z,37.10
2023-02-11T01:07:39.576Z,37.25
2023-02-11T01:10:05.840Z,37.00
2023-02-11T01:12:34.012Z,37.28
2023-02-11T01:15:02.232Z,37.16
2023-02-11T01:17:28.489Z,37.09
2023-02-11T01:19:54.775Z,35.89
2023-02-11T01:22:21.044Z,36.51
2023-02-11T01:24:47.330Z,36.63
2023-02-11T01:27:13.595Z,36.38
2023-02-11T01:29:39.867Z,36.13
2023-02-11T01:32:06.163Z,36.25
2023-02-11T01:34:32.454Z,35.98
2023-02-11T01:36:58.736Z,36.37
2023-02-11T01:39:25.011Z,36.28
2023-02-11T01:41:51.273Z,37.66
2023-02-11T01:44:17.545Z,37.19
2023-02-11T01:46:43.908Z,36.28
2023-02-11T01:49:10.286Z,35.69
2023-02-11T01:51:36.602Z,35.78
2023-02-11T01:54:02.858Z,36.19
2023-02-11T01:56:29.131Z,37.29
2023-02-11T01:58:55.422Z,36.86
2023-02-11T02:01:21.738Z,38.44
2023-02-11T02:03:48.066Z,39.11
2023-02-11T02:06:14.389Z,38.32
2023-02-11T02:08:40.709Z,37.91
2023-02-11T02:11:07.005Z,37.52
2023-02-11T02:13:33.261Z,38.79
2023-02-11T02:15:59.575Z,39.09
2023-02-11T02:18:25.869Z,38.74
2023-02-11T02:20:52.144Z,40.00
2023-02-11T02:23:18.404Z,40.34
2023-02-11T02:25:44.682Z,39.88
2023-02-11T02:28:10.964Z,40.57
2023-02-11T02:30:37.286Z,40.36
2023-02-11T02:33:16.777Z,41.10
2023-02-11T02:35:48.301Z,40.59
2023-02-11T02:38:14.750Z,41.16
2023-02-11T02:40:41.011Z,41.07
2023-02-11T02:43:07.282Z,41.29
2023-02-11T02:45:34.605Z,40.50
2023-02-11T02:48:00.867Z,41.43
2023-02-11T02:50:27.157Z,41.12
2023-02-11T02:52:53.437Z,41.77
2023-02-11T02:55:19.710Z,41.83
2023-02-11T02:57:45.973Z,42.93
2023-02-11T03:00:12.246Z,41.58
2023-02-11T03:02:38.512Z,41.61
2023-02-11T03:05:04.789Z,41.58
2023-02-11T03:07:31.077Z,43.11
2023-02-11T03:09:57.351Z,42.90
2023-02-11T03:12:23.653Z,43.44
2023-02-11T03:14:49.937Z,42.84
2023-02-11T03:17:16.216Z,43.09
2023-02-11T03:19:42.482Z,41.19
2023-02-11T03:22:08.767Z,41.37
2023-02-11T03:24:35.020Z,41.86
2023-02-11T03:27:01.302Z,41.18
2023-02-11T03:29:27.710Z,41.32
2023-02-11T03:31:54.057Z,41.60
2023-02-11T03:34:20.330Z,41.91
2023-02-11T03:36:46.608Z,42.47
2023-02-11T03:39:12.885Z,42.72
2023-02-11T03:41:39.180Z,41.80
2023-02-11T03:44:05.477Z,41.90
2023-02-11T03:46:31.743Z,42.38
2023-02-11T03:48:58.008Z,41.24
2023-02-11T03:51:24.388Z,41.76
2023-02-11T03:53:50.664Z,42.29
2023-02-11T03:56:16.963Z,41.66
2023-02-11T03:58:43.218Z,42.20
2023-02-11T04:01:09.539Z,42.03
2023-02-11T04:03:35.962Z,40.38
2023-02-11T04:06:02.282Z,42.87
2023-02-11T04:08:28.555Z,43.34
2023-02-11T04:10:54.830Z,41.92
2023-02-11T04:13:21.098Z,42.85
2023-02-11T04:15:49.006Z,43.10
2023-02-11T04:18:15.513Z,42.43
2023-02-11T04:20:41.779Z,42.65
2023-02-11T04:23:08.074Z,43.88
2023-02-11T04:25:34.452Z,44.22
2023-02-11T04:28:00.756Z,43.15
2023-02-11T04:30:27.064Z,42.62
2023-02-11T04:32:53.343Z,40.54
2023-02-11T04:35:19.620Z,41.65
2023-02-11T04:37:45.889Z,42.56
2023-02-11T04:40:12.158Z,43.45
2023-02-11T04:42:38.431Z,43.63
2023-02-11T04:45:04.707Z,44.06
2023-02-11T04:47:30.970Z,42.98
2023-02-11T04:49:57.240Z,43.65
2023-02-11T04:52:23.494Z,44.08
2023-02-11T04:54:49.768Z,44.50
2023-02-11T04:57:16.032Z,44.61
2023-02-11T04:59:42.320Z,44.84
2023-02-11T05:02:08.634Z,44.87
2023-02-11T05:04:34.997Z,45.50
2023-02-11T05:07:01.316Z,45.32
2023-02-11T05:09:27.592Z,44.57
2023-02-11T05:11:53.841Z,44.62
2023-02-11T05:14:20.101Z,44.46
2023-02-11T05:16:46.399Z,44.21
2023-02-11T05:19:12.769Z,43.87
2023-02-11T05:21:40.116Z,44.93
2023-02-11T05:24:08.618Z,45.70
2023-02-11T05:26:34.898Z,47.48
2023-02-11T05:29:01.155Z,48.57
2023-02-11T05:31:27.435Z,45.24
2023-02-11T05:33:53.738Z,44.49
2023-02-11T05:36:19.999Z,44.06
2023-02-11T05:38:46.277Z,43.57
2023-02-11T05:41:12.557Z,43.98
2023-02-11T05:43:38.837Z,44.82
2023-02-11T05:46:05.223Z,45.75
2023-02-11T05:48:31.571Z,45.55
2023-02-11T05:50:57.838Z,43.83
2023-02-11T05:53:24.211Z,45.00
2023-02-11T05:55:50.784Z,44.94
2023-02-11T05:58:17.253Z,44.81
2023-02-11T06:00:43.537Z,44.94
2023-02-11T06:03:09.820Z,45.97
2023-02-11T06:05:36.102Z,45.55
2023-02-11T06:08:02.395Z,46.40
2023-02-11T06:10:28.664Z,46.33
2023-02-11T06:12:54.952Z,47.51
2023-02-11T06:15:21.267Z,46.31
2023-02-11T06:17:47.548Z,45.92
2023-02-11T06:20:13.839Z,45.13
2023-02-11T06:22:40.117Z,44.23
2023-02-11T06:25:06.407Z,43.19
2023-02-11T06:27:32.702Z,43.62
2023-02-11T06:29:59.003Z,43.70
2023-02-11T06:32:43.010Z,43.69
2023-02-11T06:35:12.087Z,43.71
2023-02-11T06:37:38.639Z,44.15
2023-02-11T06:40:04.931Z,44.98
2023-02-11T06:42:31.211Z,44.83
2023-02-11T06:44:57.494Z,45.11
2023-02-11T06:47:23.810Z,45.44
2023-02-11T06:49:50.066Z,45.49
2023-02-11T06:52:16.343Z,44.86
2023-02-11T06:54:42.633Z,45.89
2023-02-11T06:57:08.908Z,46.70
2023-02-11T06:59:35.255Z,46.62
2023-02-11T07:02:01.635Z,46.17
2023-02-11T07:04:27.932Z,46.16
2023-02-11T07:06:54.248Z,44.60
2023-02-11T07:09:20.516Z,45.11
2023-02-11T07:11:46.801Z,45.38
2023-02-11T07:14:13.080Z,45.16
2023-02-11T07:16:39.445Z,45.77
2023-02-11T07:19:05.828Z,44.84
2023-02-11T07:21:32.123Z,46.01
2023-02-11T07:23:58.414Z,46.71
2023-02-11T07:26:24.657Z,47.59
2023-02-11T07:28:50.922Z,47.35
2023-02-11T07:31:17.289Z,46.89
2023-02-11T07:33:43.677Z,47.14
2023-02-11T07:36:09.952Z,47.58
2023-02-11T07:38:36.218Z,46.56
2023-02-11T07:41:02.521Z,48.67
2023-02-11T07:43:28.824Z,49.92
2023-02-11T07:45:55.090Z,47.75
2023-02-11T07:48:21.386Z,48.38
2023-02-11T07:50:47.646Z,47.68
2023-02-11T07:53:13.926Z,47.89
2023-02-11T07:55:40.178Z,48.50
2023-02-11T07:58:06.442Z,48.16
2023-02-11T08:00:32.733Z,47.61
2023-02-11T08:02:59.017Z,47.94
2023-02-11T08:05:25.304Z,47.94
2023-02-11T08:07:51.647Z,48.16
2023-02-11T08:10:17.900Z,46.39
2023-02-11T08:12:44.180Z,45.08
2023-02-11T08:15:10.465Z,46.24
2023-02-11T08:17:36.724Z,45.43
2023-02-11T08:20:02.998Z,44.52
2023-02-11T08:22:29.339Z,45.27
2023-02-11T08:24:55.619Z,44.31
2023-02-11T08:27:21.880Z,45.65
2023-02-11T08:29:48.157Z,45.61
2023-02-11T08:32:14.475Z,46.09
2023-02-11T08:34:40.810Z,46.56
2023-02-11T08:37:07.080Z,47.75
2023-02-11T08:39:33.338Z,47.63
2023-02-11T08:41:59.606Z,47.05
2023-02-11T08:44:25.877Z,48.61
2023-02-11T08:46:52.189Z,48.00
2023-02-11T08:49:18.450Z,46.82
2023-02-11T08:51:44.727Z,47.91
2023-02-11T08:54:11.013Z,48.09
2023-02-11T08:56:37.261Z,47.73
2023-02-11T08:59:03.572Z,48.85
2023-02-11T09:01:29.933Z,49.04
2023-02-11T09:03:56.241Z,49.63
2023-02-11T09:06:22.629Z,48.88
2023-02-11T09:08:48.927Z,48.84
2023-02-11T09:11:15.227Z,48.93
2023-02-11T09:13:41.507Z,48.75
2023-02-11T09:16:07.816Z,48.46
2023-02-11T09:57:28.636Z,44.66
2023-02-11T09:59:55.536Z,48.47
2023-02-11T10:02:21.962Z,48.01
2023-02-11T10:04:48.245Z,47.74
2023-02-11T10:07:14.495Z,47.35
2023-02-11T10:09:40.770Z,48.57
2023-02-11T10:12:07.030Z,49.60
2023-02-11T10:14:33.310Z,50.01
2023-02-11T10:16:59.621Z,49.85
2023-02-11T10:19:25.906Z,48.49
2023-02-11T10:21:52.287Z,47.84
2023-02-11T10:24:18.613Z,47.81
2023-02-11T10:26:44.881Z,48.81
2023-02-11T10:29:11.177Z,49.25
2023-02-11T10:31:37.596Z,48.92
2023-02-11T10:34:03.969Z,47.86
2023-02-11T10:36:30.240Z,48.12
2023-02-11T10:38:56.519Z,47.77
2023-02-11T10:41:22.797Z,48.36
2023-02-11T10:43:49.075Z,47.89
2023-02-11T10:46:15.412Z,47.87
2023-02-11T10:48:41.699Z,47.13
2023-02-11T10:51:07.985Z,47.80
2023-02-11T10:53:34.246Z,49.85
2023-02-11T10:56:00.594Z,49.61
2023-02-11T10:58:26.872Z,49.93
2023-02-11T11:00:53.602Z,50.39
2023-02-11T11:03:20.045Z,50.13
2023-02-11T11:05:46.339Z,49.22
2023-02-11T11:08:12.632Z,50.39
2023-02-11T11:10:38.930Z,51.30
2023-02-11T11:13:05.252Z,50.35
2023-02-11T11:15:31.547Z,49.42
2023-02-11T11:18:11.355Z,50.90
2023-02-11T11:20:44.173Z,51.59
2023-02-11T11:23:10.464Z,51.14
2023-02-11T11:25:36.780Z,50.73
2023-02-11T11:28:03.077Z,50.44
2023-02-11T11:30:29.376Z,50.79
2023-02-11T11:32:55.693Z,52.04
2023-02-11T11:35:21.995Z,51.95
2023-02-11T11:37:48.270Z,51.22
2023-02-11T11:40:14.564Z,50.57
2023-02-11T11:42:40.845Z,50.79
2023-02-11T11:45:07.145Z,49.70
2023-02-11T11:47:33.430Z,50.39
2023-02-11T11:49:59.710Z,49.96
2023-02-11T11:52:26.010Z,50.60
2023-02-11T11:54:52.307Z,50.22
2023-02-11T11:57:18.778Z,48.70
2023-02-11T11:59:45.098Z,48.73
2023-02-11T12:02:11.530Z,49.87
2023-02-11T12:04:37.848Z,48.35
2023-02-11T12:07:04.124Z,52.85
2023-02-11T12:09:30.490Z,48.39
2023-02-11T12:11:56.740Z,47.98
2023-02-11T12:14:23.018Z,48.11
2023-02-11T12:16:49.429Z,47.01
2023-02-11T12:19:15.779Z,46.28
2023-02-11T12:21:42.186Z,45.92
2023-02-11T12:24:08.447Z,46.07
2023-02-11T12:26:34.722Z,46.16
2023-02-11T12:29:01.049Z,45.41
2023-02-11T12:31:27.416Z,44.86
2023-02-11T12:33:53.750Z,45.89
2023-02-11T12:36:20.015Z,44.41
2023-02-11T12:38:46.342Z,44.86
2023-02-11T12:41:12.632Z,45.51
2023-02-11T12:43:38.885Z,44.64
2023-02-11T12:46:05.229Z,45.34
2023-02-11T12:48:33.044Z,45.86
2023-02-11T12:51:00.392Z,45.79
2023-02-11T12:53:26.717Z,44.75
2023-02-11T12:55:52.970Z,43.23
2023-02-11T12:58:19.233Z,43.77
2023-02-11T13:00:45.519Z,42.35
2023-02-11T13:03:11.832Z,43.33
2023-02-11T13:05:38.135Z,42.47
2023-02-11T13:08:04.421Z,43.93
2023-02-11T13:10:30.681Z,45.65
2023-02-11T13:12:56.969Z,44.94
2023-02-11T13:15:23.234Z,45.30
2023-02-11T13:17:49.518Z,44.94
2023-02-11T13:20:15.811Z,43.15
2023-02-11T13:22:42.112Z,41.16
2023-02-11T13:25:08.377Z,40.57
2023-02-11T13:27:34.659Z,40.26
2023-02-11T13:30:04.073Z,40.16
2023-02-11T13:32:30.558Z,37.24
2023-02-11T13:34:56.816Z,36.64
2023-02-11T13:37:23.107Z,36.59
2023-02-11T13:39:49.373Z,35.61
2023-02-11T13:42:15.656Z,36.93
2023-02-11T13:44:41.941Z,36.29
2023-02-11T13:47:08.213Z,35.48
2023-02-11T13:49:34.565Z,36.65
2023-02-11T13:52:00.885Z,35.30
2023-02-11T13:54:27.178Z,34.55
2023-02-11T13:56:53.476Z,36.14
2023-02-11T13:59:19.786Z,36.21
2023-02-11T14:01:46.088Z,34.99
2023-02-11T14:04:12.397Z,35.23
2023-02-11T14:06:38.803Z,36.04
2023-02-11T14:09:05.087Z,35.18
2023-02-11T14:11:31.389Z,35.96
2023-02-11T14:13:57.686Z,35.36
2023-02-11T14:16:36.886Z,35.70
2023-02-11T14:19:03.513Z,35.47
2023-02-11T14:21:29.813Z,35.22
2023-02-11T14:23:56.080Z,35.24
2023-02-11T14:26:22.465Z,35.56
2023-02-11T14:28:48.771Z,35.53
2023-02-11T14:31:15.123Z,36.43
2023-02-11T14:33:41.430Z,36.11
2023-02-11T14:36:07.704Z,35.23
2023-02-11T14:38:33.986Z,34.59
2023-02-11T14:41:00.294Z,34.97
2023-02-11T14:43:29.334Z,35.42
2023-02-11T14:45:55.959Z,35.05
2023-02-11T14:48:22.310Z,35.82
2023-02-11T14:50:48.744Z,36.25
2023-02-11T14:53:15.161Z,36.20
2023-02-11T14:55:41.452Z,35.14
2023-02-11T14:58:07.710Z,36.57
2023-02-11T15:00:33.990Z,35.53
2023-02-11T15:03:00.355Z,35.60
2023-02-11T15:05:26.662Z,35.22
2023-02-11T15:07:52.974Z,34.33
2023-02-11T15:10:19.303Z,34.18
2023-02-11T15:12:45.579Z,35.48
2023-02-11T15:15:11.878Z,34.12
2023-02-11T15:17:38.205Z,34.15
2023-02-11T15:20:04.515Z,33.64
2023-02-11T15:22:30.830Z,33.88
2023-02-11T15:24:57.102Z,33.67
2023-02-11T15:27:23.392Z,34.40
2023-02-11T15:29:49.703Z,32.84
2023-02-11T15:32:16.148Z,33.68
2023-02-11T15:34:42.634Z,33.19
2023-02-11T15:37:08.992Z,32.95
2023-02-11T15:39:35.392Z,34.32
2023-02-11T15:42:01.688Z,33.89
2023-02-11T15:44:27.971Z,33.67
2023-02-11T15:46:54.268Z,33.50
2023-02-11T15:49:20.576Z,35.39
2023-02-11T15:51:46.842Z,35.69
2023-02-11T15:54:13.170Z,34.97
2023-02-11T15:56:39.481Z,36.14
2023-02-11T15:59:05.775Z,36.71
2023-02-11T16:01:33.900Z,35.83
2023-02-11T16:04:00.482Z,35.80
2023-02-11T16:06:26.811Z,35.95
2023-02-11T16:08:53.168Z,36.83
2023-02-11T16:11:19.438Z,36.99
2023-02-11T16:13:45.722Z,36.85
2023-02-11T16:16:12.024Z,37.09
2023-02-11T16:18:39.783Z,38.19
2023-02-11T16:21:06.488Z,38.65
2023-02-11T16:23:32.793Z,38.28
2023-02-11T16:25:59.053Z,37.20
2023-02-11T16:28:25.399Z,37.90
2023-02-11T16:30:52.010Z,37.09
2023-02-11T16:33:18.503Z,37.01
2023-02-11T16:35:44.765Z,36.52
2023-02-11T16:38:11.167Z,36.61
2023-02-11T16:40:37.446Z,36.96
2023-02-11T16:43:03.722Z,37.15
2023-02-11T16:45:30.024Z,38.72
2023-02-11T16:47:56.310Z,39.26
2023-02-11T16:50:22.567Z,38.80
2023-02-11T16:52:48.893Z,39.15
2023-02-11T16:55:15.391Z,39.05
2023-02-11T16:57:41.716Z,39.52
2023-02-11T17:00:07.984Z,40.21
2023-02-11T17:02:34.296Z,40.51
2023-02-11T17:05:00.568Z,39.59
2023-02-11T17:07:26.852Z,39.58
2023-02-11T17:09:53.154Z,39.82
2023-02-11T17:12:19.446Z,39.48
2023-02-11T17:14:45.714Z,39.28
2023-02-11T17:17:12.040Z,39.95
2023-02-11T17:19:38.333Z,40.33
2023-02-11T17:22:04.598Z,38.85
2023-02-11T17:24:30.894Z,39.03
2023-02-11T17:26:57.173Z,40.40
2023-02-11T17:29:23.460Z,39.04
2023-02-11T17:31:49.812Z,37.84
2023-02-11T17:34:16.102Z,38.78
2023-02-11T17:36:42.357Z,38.27
2023-02-11T17:39:08.683Z,36.99
2023-02-11T17:41:34.997Z,36.22
2023-02-11T17:44:01.262Z,35.34
2023-02-11T17:46:27.592Z,35.03
2023-02-11T17:48:53.896Z,33.62
2023-02-11T17:51:20.208Z,32.26
2023-02-11T17:53:46.474Z,30.31
2023-02-11T17:56:12.737Z,29.60
2023-02-11T17:58:39.032Z,29.28
2023-02-11T18:01:05.357Z,29.44
2023-02-11T18:03:31.648Z,29.25
2023-02-11T18:05:57.965Z,30.23
2023-02-11T18:08:24.250Z,30.49
2023-02-11T18:10:50.513Z,30.27
2023-02-11T18:13:16.787Z,30.05
2023-02-11T18:15:43.053Z,30.82
2023-02-11T18:18:09.350Z,29.67
2023-02-11T18:20:35.610Z,29.02
2023-02-11T18:23:01.909Z,29.84
2023-02-11T18:25:28.171Z,29.88
2023-02-11T18:27:54.435Z,29.96
2023-02-11T18:30:20.699Z,29.68
2023-02-11T18:32:46.989Z,30.98
2023-02-11T18:35:14.924Z,30.93
2023-02-11T18:37:41.380Z,31.29
2023-02-11T18:40:07.656Z,32.99
2023-02-11T18:42:33.944Z,35.89
2023-02-11T18:45:00.292Z,39.00
2023-02-11T18:47:26.589Z,41.00
2023-02-11T18:49:52.867Z,42.62
2023-02-11T18:52:19.151Z,44.14
2023-02-11T18:54:45.430Z,44.40
2023-02-11T18:57:11.713Z,46.98
2023-02-11T18:59:37.981Z,46.41
2023-02-11T19:02:04.250Z,47.21
2023-02-11T19:04:30.590Z,46.74
2023-02-11T19:06:56.918Z,46.24
2023-02-11T19:09:23.209Z,46.28
2023-02-11T19:11:49.526Z,45.77
2023-02-11T19:14:15.801Z,45.09
2023-02-11T19:16:42.152Z,46.97
2023-02-11T19:19:08.424Z,48.71
2023-02-11T19:21:34.700Z,48.53
2023-02-11T19:24:01.014Z,49.11
2023-02-11T19:26:27.288Z,48.74
2023-02-11T19:28:53.589Z,48.28
2023-02-11T19:31:19.924Z,48.96
2023-02-11T19:33:46.201Z,48.05
2023-02-11T19:36:12.483Z,46.30
2023-02-11T19:38:38.756Z,46.08
2023-02-11T19:41:05.057Z,46.56
2023-02-11T19:43:31.340Z,48.47
2023-02-11T19:45:57.666Z,48.48
2023-02-11T19:48:24.030Z,49.30
2023-02-11T19:50:50.318Z,49.05
2023-02-11T19:53:16.590Z,52.63
2023-02-11T19:55:42.843Z,51.73
2023-02-11T19:58:09.131Z,50.68
2023-02-11T20:00:35.420Z,50.36
2023-02-11T20:03:01.785Z,47.83
2023-02-11T20:05:28.080Z,47.98
2023-02-11T20:07:54.339Z,48.25
2023-02-11T20:10:20.609Z,50.03
2023-02-11T20:12:46.896Z,49.91
2023-02-11T20:15:13.161Z,51.37
2023-02-11T20:17:39.409Z,51.91
2023-02-11T20:20:05.686Z,52.10
2023-02-11T20:22:31.970Z,52.17
2023-02-11T20:24:58.231Z,53.26
2023-02-11T20:27:24.526Z,53.23
2023-02-11T20:29:50.814Z,53.70
2023-02-11T20:32:17.108Z,53.10
2023-02-11T20:34:43.503Z,52.58
2023-02-11T20:37:09.767Z,53.23
2023-02-11T20:39:36.044Z,53.87
2023-02-11T20:42:02.339Z,54.68
2023-02-11T20:44:28.607Z,55.67
2023-02-11T20:46:55.008Z,56.07
2023-02-11T20:49:21.295Z,55.59
2023-02-11T20:51:47.562Z,54.89
2023-02-11T20:54:13.844Z,55.25
2023-02-11T20:56:40.129Z,52.91
2023-02-11T20:59:06.411Z,53.14
2023-02-11T21:01:32.703Z,53.89
2023-02-11T21:03:59.007Z,53.64
2023-02-11T21:06:25.285Z,55.87
2023-02-11T21:08:51.558Z,54.57
2023-02-11T21:11:17.839Z,55.19
2023-02-11T21:13:44.135Z,53.96
2023-02-11T21:16:10.549Z,53.63
2023-02-11T21:18:36.900Z,53.37
2023-02-11T21:21:06.039Z,54.12
2023-02-11T21:23:33.213Z,54.55
2023-02-11T21:25:59.490Z,54.30
2023-02-11T21:28:25.836Z,54.86
2023-02-11T21:30:52.344Z,55.11
2023-02-11T21:33:18.719Z,56.53
2023-02-11T21:35:45.017Z,54.73
2023-02-11T21:38:11.329Z,53.92
2023-02-11T21:40:37.600Z,53.18
2023-02-11T21:43:03.882Z,54.01
2023-02-11T21:45:32.303Z,52.20
2023-02-11T21:47:58.728Z,52.04
2023-02-11T21:50:25.001Z,52.77
2023-02-11T21:52:51.292Z,51.99
2023-02-11T21:55:17.558Z,53.09
2023-02-11T21:57:43.838Z,52.55
2023-02-11T22:00:10.128Z,52.76
2023-02-11T22:02:36.454Z,51.59
2023-02-11T22:05:02.824Z,51.94
2023-02-11T22:07:29.221Z,51.26
2023-02-11T22:09:55.503Z,51.39
2023-02-11T22:12:21.783Z,50.67
2023-02-11T22:14:48.083Z,51.43
2023-02-11T22:17:14.392Z,50.58
2023-02-11T22:19:40.734Z,51.09
2023-02-11T22:22:07.030Z,50.88
2023-02-11T22:24:33.297Z,50.07
2023-02-11T22:26:59.565Z,50.17
2023-02-11T22:29:25.833Z,51.28
2023-02-11T22:31:52.116Z,50.12
2023-02-11T22:34:18.400Z,49.12
2023-02-11T22:36:44.688Z,48.54
2023-02-11T22:39:10.969Z,48.33
2023-02-11T22:41:37.255Z,47.53
2023-02-11T22:44:03.555Z,45.45
2023-02-11T22:46:29.825Z,45.46
2023-02-11T22:48:56.115Z,45.51
2023-02-11T22:51:22.389Z,45.77
2023-02-11T22:53:48.681Z,45.91
2023-02-11T22:56:15.909Z,45.99
2023-02-11T22:58:42.373Z,44.49
2023-02-11T23:01:08.628Z,44.26
2023-02-11T23:03:34.897Z,44.36
2023-02-11T23:06:01.191Z,43.69
2023-02-11T23:08:27.465Z,43.96
2023-02-11T23:10:53.823Z,44.47
2023-02-11T23:13:20.159Z,44.84
2023-02-11T23:15:46.415Z,43.22
2023-02-11T23:18:12.682Z,43.12
2023-02-11T23:20:38.949Z,43.16
2023-02-11T23:23:05.264Z,41.73
2023-02-11T23:25:31.534Z,40.63
2023-02-11T23:27:57.843Z,39.25
2023-02-11T23:30:24.145Z,38.86
2023-02-11T23:32:50.417Z,39.01
2023-02-11T23:35:16.674Z,38.72
2023-02-11T23:37:43.013Z,38.30
2023-02-11T23:40:09.335Z,38.68
2023-02-11T23:42:35.630Z,38.12
2023-02-11T23:45:01.903Z,37.57
2023-02-11T23:47:28.282Z,37.66
2023-02-11T23:49:54.569Z,36.33
2023-02-11T23:52:20.832Z,35.86
2023-02-11T23:54:47.117Z,35.87
2023-02-11T23:57:13.377Z,35.89
2023-02-11T23:59:39.633Z,35.96
